Time;durP1;ratioP1;P1;durP2;ratioP2;P2;SDS_P1;SDS_P2;PMS_P1;PMS_P2;Temp;Humidity;BMP_temperature;BMP_pressure;BME280_temperature;BME280_humidity;BME280_pressure;Samples;Min_cycle;Max_cycle;Signal;HPM_P1;HPM_P2
2024/03/06 00:02:08;;;;;;;14.37;9.03;;;4.00;99.90;;;;;;5026602;28;20191;-80
2024/03/06 00:04:34;;;;;;;16.03;8.97;;;4.00;99.90;;;;;;5011005;28;20179;-80
2024/03/06 00:07:01;;;;;;;17.13;8.70;;;4.00;99.90;;;;;;5013924;28;20183;-80
2024/03/06 00:09:27;;;;;;;13.87;9.20;;;4.10;99.90;;;;;;5013816;28;20187;-81
2024/03/06 00:11:54;;;;;;;14.90;9.47;;;4.00;99.90;;;;;;5014092;28;20179;-79
2024/03/06 00:14:21;;;;;;;15.80;9.07;;;4.00;99.90;;;;;;5014032;28;20207;-81
2024/03/06 00:16:50;;;;;;;16.70;9.37;;;4.00;99.90;;;;;;5013962;28;20171;-81
2024/03/06 00:19:20;;;;;;;16.70;9.70;;;4.00;99.90;;;;;;5013638;28;20210;-80
2024/03/06 00:21:46;;;;;;;16.70;9.97;;;4.00;99.90;;;;;;5029137;28;20265;-80
2024/03/06 00:24:13;;;;;;;14.33;9.23;;;4.00;99.90;;;;;;5009092;28;20218;-81
2024/03/06 00:26:45;;;;;;;14.30;9.60;;;3.90;99.90;;;;;;5010847;28;20582;-81
2024/03/06 00:29:11;;;;;;;14.93;9.53;;;3.90;99.90;;;;;;5014209;28;20183;-79
2024/03/06 00:31:42;;;;;;;14.60;9.33;;;3.90;99.90;;;;;;5029071;28;20527;-80
2024/03/06 00:34:08;;;;;;;15.47;9.70;;;3.90;99.90;;;;;;5007069;28;20219;-80
2024/03/06 00:36:34;;;;;;;20.07;9.70;;;3.90;99.90;;;;;;5029235;28;20197;-81
2024/03/06 00:39:00;;;;;;;18.07;9.23;;;3.90;99.90;;;;;;5013335;28;20853;-80
2024/03/06 00:41:26;;;;;;;16.17;9.53;;;3.90;99.90;;;;;;5013922;28;20186;-81
2024/03/06 00:43:52;;;;;;;12.93;9.00;;;3.90;99.90;;;;;;5028988;28;20211;-80
2024/03/06 00:46:17;;;;;;;14.63;9.43;;;3.90;99.90;;;;;;5013765;28;20627;-80
2024/03/06 00:48:43;;;;;;;16.57;10.03;;;3.90;99.90;;;;;;5013236;28;20183;-79
2024/03/06 00:51:09;;;;;;;15.07;9.70;;;3.90;99.90;;;;;;5013840;28;20175;-81
2024/03/06 00:53:35;;;;;;;17.23;10.70;;;3.90;99.90;;;;;;5013308;28;20179;-79
2024/03/06 00:56:02;;;;;;;16.13;10.17;;;3.90;99.90;;;;;;5013733;28;20171;-80
2024/03/06 00:58:27;;;;;;;17.57;10.23;;;3.90;99.90;;;;;;5016374;28;20187;-79
2024/03/06 01:00:53;;;;;;;15.43;9.93;;;3.80;99.90;;;;;;5017173;28;20179;-80
2024/03/06 01:03:19;;;;;;;18.23;9.93;;;3.80;99.90;;;;;;5010464;28;20206;-81
2024/03/06 01:05:46;;;;;;;15.50;10.57;;;3.80;99.90;;;;;;5017391;28;20175;-81
2024/03/06 01:08:12;;;;;;;17.53;10.57;;;3.80;99.90;;;;;;5016930;28;20606;-80
2024/03/06 01:10:38;;;;;;;15.27;9.97;;;3.80;99.90;;;;;;5017159;28;20175;-80
2024/03/06 01:13:06;;;;;;;14.53;10.43;;;3.80;99.90;;;;;;5017419;28;20179;-81
2024/03/06 01:15:32;;;;;;;16.87;10.77;;;3.80;99.90;;;;;;5017585;28;20233;-81
2024/03/06 01:17:58;;;;;;;17.57;10.70;;;3.80;99.90;;;;;;5016535;28;20237;-80
2024/03/06 01:20:24;;;;;;;14.93;10.13;;;3.80;99.90;;;;;;5017136;28;20250;-80
2024/03/06 01:22:50;;;;;;;15.93;10.40;;;3.70;99.90;;;;;;5014927;28;20580;-80
2024/03/06 01:25:16;;;;;;;16.33;10.57;;;3.70;99.90;;;;;;5010631;28;20313;-80
2024/03/06 01:27:42;;;;;;;15.17;10.50;;;3.70;99.90;;;;;;5016494;28;20183;-80
2024/03/06 01:30:09;;;;;;;17.13;10.13;;;3.70;99.90;;;;;;5016289;28;20229;-81
2024/03/06 01:32:35;;;;;;;16.40;10.80;;;3.80;99.90;;;;;;5025214;28;20228;-81
2024/03/06 01:35:02;;;;;;;16.60;10.93;;;3.80;99.90;;;;;;5016739;28;20190;-80
2024/03/06 01:37:27;;;;;;;16.53;10.53;;;3.70;99.90;;;;;;5016908;28;20194;-80
2024/03/06 01:39:53;;;;;;;14.07;9.90;;;3.80;99.90;;;;;;5016324;28;20187;-81
2024/03/06 01:42:19;;;;;;;17.07;11.30;;;3.70;99.90;;;;;;5031993;28;20178;-81
2024/03/06 01:44:45;;;;;;;18.23;11.13;;;3.70;99.90;;;;;;5016640;28;20527;-81
2024/03/06 01:47:11;;;;;;;18.77;11.03;;;3.70;99.90;;;;;;5031934;28;20652;-81
2024/03/06 01:49:37;;;;;;;19.47;10.30;;;3.70;99.90;;;;;;5016202;28;20179;-80
2024/03/06 01:52:04;;;;;;;18.03;10.90;;;3.70;99.90;;;;;;5016568;28;20183;-81
2024/03/06 01:54:32;;;;;;;17.43;11.63;;;3.70;99.90;;;;;;5016292;28;20187;-81
2024/03/06 01:57:02;;;;;;;18.73;11.40;;;3.70;99.90;;;;;;5016153;28;20189;-81
2024/03/06 01:59:29;;;;;;;17.23;10.97;;;3.70;99.90;;;;;;5016265;28;20211;-81
2024/03/06 02:01:55;;;;;;;15.23;10.07;;;3.70;99.90;;;;;;5015077;28;20266;-81
2024/03/06 02:04:22;;;;;;;17.10;10.93;;;3.70;99.90;;;;;;5009492;28;20269;-80
2024/03/06 02:06:48;;;;;;;17.10;11.20;;;3.70;99.90;;;;;;5031228;28;20214;-81
2024/03/06 02:09:14;;;;;;;19.07;10.70;;;3.60;99.90;;;;;;5015653;28;20768;-81
2024/03/06 02:11:41;;;;;;;15.30;10.70;;;3.60;99.90;;;;;;5031033;28;20270;-79
2024/03/06 02:14:09;;;;;;;20.40;12.00;;;3.60;99.90;;;;;;5031250;28;20534;-81
2024/03/06 02:16:41;;;;;;;23.30;11.77;;;3.60;99.90;;;;;;5386238;22;20279;-78
2024/03/06 02:19:08;;;;;;;18.50;11.80;;;3.60;99.90;;;;;;5042550;28;20321;-79
2024/03/06 02:21:34;;;;;;;19.13;11.27;;;3.60;99.90;;;;;;5050692;28;20182;-79
2024/03/06 02:24:00;;;;;;;16.77;11.30;;;3.60;99.90;;;;;;5053865;28;20574;-79
2024/03/06 02:26:26;;;;;;;15.93;11.13;;;3.60;99.90;;;;;;5055306;28;20186;-79
2024/03/06 02:28:54;;;;;;;17.97;11.30;;;3.60;99.90;;;;;;5055221;28;20182;-79
2024/03/06 02:31:22;;;;;;;18.73;10.83;;;3.60;99.90;;;;;;5054358;28;20186;-79
2024/03/06 02:33:49;;;;;;;16.53;11.47;;;3.60;99.90;;;;;;5048573;28;20615;-78
2024/03/06 02:36:18;;;;;;;21.57;11.27;;;3.60;99.90;;;;;;5055532;28;20177;-79
2024/03/06 02:38:45;;;;;;;17.27;11.43;;;3.50;99.90;;;;;;5046509;28;20300;-78
2024/03/06 02:41:13;;;;;;;18.07;11.13;;;3.50;99.90;;;;;;5055560;28;20236;-78
2024/03/06 02:43:39;;;;;;;20.33;12.20;;;3.50;99.90;;;;;;5055424;28;20192;-79
2024/03/06 02:46:05;;;;;;;18.67;11.53;;;3.50;99.90;;;;;;5055330;28;20178;-79
2024/03/06 02:48:31;;;;;;;19.83;11.93;;;3.50;99.90;;;;;;5046700;28;20225;-79
2024/03/06 02:50:58;;;;;;;18.17;12.00;;;3.50;99.90;;;;;;5053233;28;20182;-78
2024/03/06 02:53:25;;;;;;;19.07;11.93;;;3.50;99.90;;;;;;5055252;28;20174;-79
2024/03/06 02:55:51;;;;;;;16.40;11.57;;;3.50;99.90;;;;;;5054760;28;20228;-79
2024/03/06 02:58:17;;;;;;;20.20;11.33;;;3.50;99.90;;;;;;5054814;28;20198;-78
2024/03/06 03:00:43;;;;;;;17.53;12.13;;;3.50;99.90;;;;;;5054446;28;20181;-79
2024/03/06 03:03:11;;;;;;;21.93;11.77;;;3.40;99.90;;;;;;5043677;28;20185;-79
2024/03/06 03:05:39;;;;;;;20.70;11.77;;;3.50;99.90;;;;;;5051610;28;20166;-80
2024/03/06 03:08:06;;;;;;;19.47;11.97;;;3.50;99.90;;;;;;5054724;28;20208;-82
2024/03/06 03:10:34;;;;;;;20.60;12.73;;;3.50;99.90;;;;;;5036795;28;20628;-80
2024/03/06 03:13:00;;;;;;;20.27;11.70;;;3.40;99.90;;;;;;5048520;28;20666;-79
2024/03/06 03:15:26;;;;;;;19.63;13.03;;;3.40;99.90;;;;;;5054758;28;20188;-79
2024/03/06 03:17:52;;;;;;;24.07;11.50;;;3.40;99.90;;;;;;5054013;28;20230;-78
2024/03/06 03:20:18;;;;;;;19.30;12.20;;;3.40;99.90;;;;;;5054126;28;20255;-80
2024/03/06 03:22:44;;;;;;;20.20;12.00;;;3.40;99.90;;;;;;5054613;28;20205;-79
2024/03/06 03:25:11;;;;;;;18.20;11.80;;;3.30;99.90;;;;;;5054391;28;20174;-79
2024/03/06 03:27:39;;;;;;;18.23;12.47;;;3.30;99.90;;;;;;5053107;28;20178;-79
2024/03/06 03:30:09;;;;;;;19.13;12.37;;;3.30;99.90;;;;;;5054615;28;20184;-79
2024/03/06 03:32:38;;;;;;;20.90;12.60;;;3.30;99.90;;;;;;5047918;28;20591;-79
2024/03/06 03:35:07;;;;;;;20.87;12.47;;;3.30;99.90;;;;;;5054449;28;20188;-79
2024/03/06 03:37:33;;;;;;;18.60;11.67;;;3.30;99.90;;;;;;5044676;28;20174;-79
2024/03/06 03:40:00;;;;;;;18.50;12.23;;;3.30;99.90;;;;;;5053774;28;20255;-79
2024/03/06 03:42:26;;;;;;;18.77;12.17;;;3.30;99.90;;;;;;5054082;28;20186;-79
2024/03/06 03:44:51;;;;;;;21.87;12.73;;;3.30;99.90;;;;;;5054093;28;20187;-80
2024/03/06 03:47:18;;;;;;;18.63;11.77;;;3.30;99.90;;;;;;5054079;28;20178;-80
2024/03/06 03:49:44;;;;;;;17.17;11.77;;;3.30;99.90;;;;;;5053604;28;20193;-80
2024/03/06 03:52:11;;;;;;;19.07;11.47;;;3.30;99.90;;;;;;5053941;28;20207;-81
2024/03/06 03:54:37;;;;;;;20.53;11.37;;;3.30;99.90;;;;;;5054067;28;20178;-79
2024/03/06 03:57:03;;;;;;;25.07;11.77;;;3.30;99.90;;;;;;5053984;28;20268;-79
2024/03/06 03:59:29;;;;;;;17.43;11.43;;;3.30;99.90;;;;;;5054042;28;20205;-80
2024/03/06 04:01:57;;;;;;;21.27;12.60;;;3.30;99.90;;;;;;5053625;28;20627;-78
2024/03/06 04:04:23;;;;;;;19.57;11.67;;;3.20;99.90;;;;;;5054078;28;20319;-79
2024/03/06 04:06:49;;;;;;;18.43;12.20;;;3.20;99.90;;;;;;5045853;28;20184;-79
2024/03/06 04:09:15;;;;;;;19.53;11.43;;;3.20;99.90;;;;;;5053967;28;20185;-79
2024/03/06 04:11:40;;;;;;;17.10;11.67;;;3.20;99.90;;;;;;5052655;28;20178;-79
2024/03/06 04:14:07;;;;;;;18.67;11.47;;;3.20;99.90;;;;;;5054034;28;20224;-78
2024/03/06 04:16:33;;;;;;;22.00;12.40;;;3.20;99.90;;;;;;5053012;28;20185;-80
2024/03/06 04:19:00;;;;;;;19.43;11.87;;;3.30;99.90;;;;;;5053215;28;20209;-79
2024/03/06 04:21:26;;;;;;;20.03;11.70;;;3.30;99.90;;;;;;5053357;28;20197;-80
2024/03/06 04:23:52;;;;;;;19.17;11.80;;;3.20;99.90;;;;;;5052326;28;20192;-79
2024/03/06 04:26:18;;;;;;;20.47;11.80;;;3.20;99.90;;;;;;5053605;28;20182;-80
2024/03/06 04:28:44;;;;;;;20.20;11.17;;;3.20;99.90;;;;;;5053516;28;20178;-78
2024/03/06 04:31:10;;;;;;;20.97;11.87;;;3.20;99.90;;;;;;5053605;28;20670;-80
2024/03/06 04:33:36;;;;;;;18.83;11.80;;;3.20;99.90;;;;;;5056742;28;20189;-79
2024/03/06 04:36:07;;;;;;;17.63;12.50;;;3.20;99.90;;;;;;5037837;28;20722;-80
2024/03/06 04:38:32;;;;;;;20.47;12.07;;;3.20;99.90;;;;;;5052137;28;20312;-80
2024/03/06 04:40:58;;;;;;;17.83;11.73;;;3.20;99.90;;;;;;5057159;28;20261;-79
2024/03/06 04:43:24;;;;;;;18.87;11.93;;;3.20;99.90;;;;;;5057712;28;20243;-79
2024/03/06 04:45:50;;;;;;;17.03;11.67;;;3.20;99.90;;;;;;5057197;28;20256;-80
2024/03/06 04:48:16;;;;;;;20.83;12.67;;;3.20;99.90;;;;;;5057633;28;20233;-80
2024/03/06 04:50:42;;;;;;;20.57;13.10;;;3.20;99.90;;;;;;5056145;28;20563;-79
2024/03/06 04:53:10;;;;;;;21.30;12.50;;;3.20;99.90;;;;;;5056682;28;20189;-80
2024/03/06 04:55:37;;;;;;;18.63;12.60;;;3.10;99.90;;;;;;5056050;28;20189;-80
2024/03/06 04:58:04;;;;;;;19.43;12.03;;;3.10;99.90;;;;;;5055774;28;20209;-79
2024/03/06 05:00:30;;;;;;;19.30;11.93;;;3.10;99.90;;;;;;5057166;28;20228;-80
2024/03/06 05:02:56;;;;;;;19.93;12.67;;;3.10;99.90;;;;;;5048819;28;20190;-79
2024/03/06 05:05:23;;;;;;;20.33;11.97;;;3.10;99.90;;;;;;5049081;28;20182;-79
2024/03/06 05:07:49;;;;;;;17.37;11.47;;;3.10;99.90;;;;;;5040365;28;20613;-79
2024/03/06 05:10:18;;;;;;;17.97;12.03;;;3.10;99.90;;;;;;5056871;28;20181;-79
2024/03/06 05:12:43;;;;;;;19.43;12.03;;;3.00;99.90;;;;;;5056996;28;20193;-79
2024/03/06 05:15:11;;;;;;;19.93;12.53;;;3.00;99.90;;;;;;5056858;28;20186;-80
2024/03/06 05:17:37;;;;;;;19.60;11.77;;;3.00;99.90;;;;;;5056332;28;20229;-82
2024/03/06 05:20:03;;;;;;;19.70;12.50;;;3.00;99.90;;;;;;5040539;28;20204;-79
2024/03/06 05:22:30;;;;;;;20.57;12.83;;;3.00;99.90;;;;;;5056502;28;20256;-79
2024/03/06 05:24:56;;;;;;;19.87;12.17;;;2.90;99.90;;;;;;5056460;28;20189;-79
2024/03/06 05:27:22;;;;;;;22.50;12.97;;;3.00;99.90;;;;;;5049255;28;20178;-79
2024/03/06 05:29:48;;;;;;;21.60;12.97;;;3.00;99.90;;;;;;5054454;28;20209;-79
2024/03/06 05:32:14;;;;;;;21.17;13.93;;;2.90;99.90;;;;;;5056866;28;20205;-79
2024/03/06 05:34:40;;;;;;;21.57;13.17;;;2.90;99.90;;;;;;5056505;28;20186;-79
2024/03/06 05:37:06;;;;;;;19.10;12.67;;;3.00;99.90;;;;;;5045488;28;20186;-79
2024/03/06 05:39:33;;;;;;;26.80;14.70;;;2.90;99.90;;;;;;5051823;28;20213;-79
2024/03/06 05:42:06;;;;;;;21.53;13.67;;;2.90;99.90;;;;;;5045476;28;20171;-79
2024/03/06 05:44:32;;;;;;;20.20;13.27;;;2.90;99.90;;;;;;5039612;28;20637;-78
2024/03/06 05:46:59;;;;;;;20.27;13.13;;;2.90;99.90;;;;;;5048032;28;20613;-79
2024/03/06 05:49:25;;;;;;;20.53;13.23;;;2.90;99.90;;;;;;5045578;28;20183;-79
2024/03/06 05:51:52;;;;;;;20.40;13.43;;;2.90;99.90;;;;;;5041231;28;20232;-79
2024/03/06 05:54:19;;;;;;;23.63;14.37;;;2.90;99.90;;;;;;5049336;28;20182;-78
2024/03/06 05:56:47;;;;;;;21.33;13.50;;;2.90;99.90;;;;;;5039993;28;20183;-79
2024/03/06 05:59:13;;;;;;;24.33;14.40;;;3.00;99.90;;;;;;5051486;28;20206;-81
2024/03/06 06:01:39;;;;;;;23.27;14.23;;;2.90;99.90;;;;;;5051580;28;20327;-78
2024/03/06 06:04:05;;;;;;;24.97;13.40;;;2.90;99.90;;;;;;5056352;28;20232;-79
2024/03/06 06:06:31;;;;;;;22.27;14.23;;;2.90;99.90;;;;;;5048951;28;20254;-79
2024/03/06 06:08:56;;;;;;;25.80;13.30;;;2.90;99.90;;;;;;5055225;28;20562;-79
2024/03/06 06:11:22;;;;;;;22.23;13.90;;;2.80;99.90;;;;;;5053265;28;20184;-79
2024/03/06 06:13:48;;;;;;;25.17;13.97;;;2.80;99.90;;;;;;5054848;28;20186;-78
2024/03/06 06:16:14;;;;;;;22.17;14.03;;;2.80;99.90;;;;;;5056262;28;20508;-78
2024/03/06 06:18:43;;;;;;;22.20;14.27;;;2.80;99.90;;;;;;5047214;28;20541;-78
2024/03/06 06:21:09;;;;;;;22.40;13.50;;;2.80;99.90;;;;;;5047549;28;20620;-80
2024/03/06 06:23:35;;;;;;;21.20;12.93;;;2.80;99.90;;;;;;5054963;28;20196;-79
2024/03/06 06:26:01;;;;;;;21.90;13.53;;;2.80;99.90;;;;;;5054594;28;20193;-78
2024/03/06 06:28:27;;;;;;;22.47;14.10;;;2.80;99.90;;;;;;5054578;28;20182;-79
2024/03/06 06:30:53;;;;;;;22.17;14.57;;;2.80;99.90;;;;;;5054399;28;20173;-79
2024/03/06 06:33:20;;;;;;;29.83;14.33;;;2.80;99.90;;;;;;5055781;28;20185;-79
2024/03/06 06:35:47;;;;;;;22.67;14.03;;;2.80;99.90;;;;;;5052560;28;20178;-79
2024/03/06 06:38:12;;;;;;;22.67;14.67;;;2.80;99.90;;;;;;5040201;28;20648;-80
2024/03/06 06:40:40;;;;;;;22.23;14.20;;;2.90;99.90;;;;;;5055650;28;20181;-79
2024/03/06 06:43:06;;;;;;;22.47;13.80;;;2.90;99.90;;;;;;5054315;28;20204;-80
2024/03/06 06:45:32;;;;;;;24.83;14.73;;;2.90;99.90;;;;;;5039703;28;20610;-79
2024/03/06 06:47:58;;;;;;;24.53;13.90;;;2.90;99.90;;;;;;5045074;28;20194;-80
2024/03/06 06:50:26;;;;;;;23.43;14.80;;;2.90;99.90;;;;;;5055484;28;20668;-79
2024/03/06 06:52:53;;;;;;;24.23;14.20;;;3.00;99.90;;;;;;5053986;28;20188;-79
2024/03/06 06:55:22;;;;;;;23.57;14.80;;;3.00;99.90;;;;;;5054477;28;20277;-77
2024/03/06 06:57:49;;;;;;;24.13;14.53;;;3.00;99.90;;;;;;5055095;28;20265;-79
2024/03/06 07:00:18;;;;;;;27.10;15.27;;;3.00;99.90;;;;;;5053865;28;20178;-79
2024/03/06 07:02:45;;;;;;;23.07;13.63;;;3.00;99.90;;;;;;5053798;28;20216;-79
2024/03/06 07:05:12;;;;;;;27.40;15.73;;;3.00;99.90;;;;;;5055285;28;20178;-79
2024/03/06 07:07:38;;;;;;;22.67;14.30;;;3.10;99.90;;;;;;5046629;28;20181;-80
2024/03/06 07:10:08;;;;;;;24.97;14.97;;;3.10;99.90;;;;;;5054822;28;20264;-78
2024/03/06 07:12:35;;;;;;;24.43;15.00;;;3.20;99.90;;;;;;5053860;28;20181;-79
2024/03/06 07:15:02;;;;;;;25.13;15.53;;;3.20;99.90;;;;;;5054950;28;20337;-79
2024/03/06 07:17:28;;;;;;;25.77;15.47;;;3.20;99.90;;;;;;5054727;28;20241;-78
2024/03/06 07:19:54;;;;;;;24.33;15.03;;;3.20;99.90;;;;;;5054679;28;20584;-79
2024/03/06 07:22:20;;;;;;;20.47;14.37;;;3.30;99.90;;;;;;5054847;28;20185;-80
2024/03/06 07:24:46;;;;;;;24.97;15.63;;;3.30;99.90;;;;;;5054696;28;20612;-79
2024/03/06 07:27:12;;;;;;;22.03;14.87;;;3.30;99.90;;;;;;5053383;28;20260;-83
2024/03/06 07:29:38;;;;;;;23.73;15.27;;;3.30;99.90;;;;;;5054171;28;20508;-78
2024/03/06 07:32:07;;;;;;;22.63;15.00;;;3.40;99.90;;;;;;5046591;28;20182;-78
2024/03/06 07:34:33;;;;;;;23.37;14.67;;;3.40;99.90;;;;;;5054683;28;20232;-79
2024/03/06 07:36:59;;;;;;;24.97;14.83;;;3.50;99.90;;;;;;5043375;28;20197;-79
2024/03/06 07:39:25;;;;;;;23.37;14.30;;;3.50;99.90;;;;;;5044505;28;20198;-79
2024/03/06 07:41:51;;;;;;;23.57;14.27;;;3.50;99.90;;;;;;5043108;28;20182;-78
2024/03/06 07:44:17;;;;;;;24.30;14.77;;;3.50;99.90;;;;;;5041266;28;20243;-79
2024/03/06 07:46:43;;;;;;;24.83;15.40;;;3.50;99.90;;;;;;5037390;28;20610;-79
2024/03/06 07:49:09;;;;;;;22.57;14.40;;;3.60;99.90;;;;;;5042441;28;20173;-79
2024/03/06 07:51:40;;;;;;;22.47;14.87;;;3.60;99.90;;;;;;5037912;28;20583;-79
2024/03/06 07:54:06;;;;;;;23.23;14.63;;;3.70;99.90;;;;;;5034743;28;20182;-78
2024/03/06 07:56:32;;;;;;;23.93;14.30;;;3.70;99.90;;;;;;5042932;28;20186;-79
2024/03/06 07:58:58;;;;;;;21.00;14.20;;;3.80;99.90;;;;;;5039922;28;20311;-78
2024/03/06 08:01:24;;;;;;;21.73;14.60;;;3.80;99.90;;;;;;5043505;28;20188;-78
2024/03/06 08:03:50;;;;;;;24.13;14.13;;;3.90;99.90;;;;;;5045482;28;20185;-78
2024/03/06 08:06:16;;;;;;;23.47;13.57;;;4.00;99.90;;;;;;5044118;28;20261;-78
2024/03/06 08:08:44;;;;;;;22.17;14.30;;;4.00;99.90;;;;;;5038296;28;20183;-78
2024/03/06 08:11:13;;;;;;;22.20;14.67;;;4.10;99.90;;;;;;5051811;28;20181;-78
2024/03/06 08:13:39;;;;;;;24.90;15.10;;;4.20;99.90;;;;;;5046342;28;20631;-78
2024/03/06 08:16:06;;;;;;;22.63;13.93;;;4.40;99.90;;;;;;5038711;28;20181;-78
2024/03/06 08:18:33;;;;;;;21.00;13.00;;;4.40;99.90;;;;;;5048017;28;20233;-79
2024/03/06 08:21:00;;;;;;;22.30;13.83;;;4.50;99.90;;;;;;5042275;28;20609;-78
2024/03/06 08:23:26;;;;;;;23.63;13.23;;;4.60;99.90;;;;;;5037534;28;20273;-79
2024/03/06 08:25:55;;;;;;;23.40;13.43;;;4.60;99.90;;;;;;5042202;28;20312;-79
2024/03/06 08:28:21;;;;;;;23.33;14.30;;;4.80;99.90;;;;;;5049452;28;20186;-79
2024/03/06 08:30:47;;;;;;;21.93;13.13;;;4.80;99.90;;;;;;5041975;28;20193;-78
2024/03/06 08:33:13;;;;;;;19.10;13.17;;;4.90;99.90;;;;;;5043339;28;20245;-78
2024/03/06 08:36:03;;;;;;;24.60;13.50;;;4.90;99.90;;;;;;5045056;28;20187;-78
2024/03/06 08:38:29;;;;;;;20.37;13.27;;;5.00;99.90;;;;;;5043941;28;20646;-79
2024/03/06 08:40:55;;;;;;;24.93;12.90;;;5.00;99.90;;;;;;5043070;28;20206;-78
2024/03/06 08:43:21;;;;;;;21.23;13.50;;;5.10;99.90;;;;;;5042341;28;20232;-80
2024/03/06 08:45:47;;;;;;;24.97;12.57;;;5.20;99.90;;;;;;5039385;28;20209;-79
2024/03/06 08:48:12;;;;;;;19.63;12.80;;;5.20;99.90;;;;;;5040559;28;20621;-78
2024/03/06 08:50:39;;;;;;;25.97;12.83;;;5.30;99.90;;;;;;5041664;28;20190;-78
2024/03/06 08:53:05;;;;;;;22.87;13.30;;;5.30;99.90;;;;;;5058928;28;20186;-79
2024/03/06 08:55:30;;;;;;;24.10;12.53;;;5.40;99.90;;;;;;5044580;28;20493;-78
2024/03/06 08:57:56;;;;;;;22.80;12.40;;;5.40;99.90;;;;;;5042435;28;20178;-78
2024/03/06 09:00:22;;;;;;;20.00;12.47;;;5.50;99.90;;;;;;5038605;28;20187;-79
2024/03/06 09:02:49;;;;;;;18.70;12.47;;;5.60;99.90;;;;;;5039228;28;20605;-80
2024/03/06 09:05:15;;;;;;;22.13;13.00;;;5.70;99.90;;;;;;5044947;28;20185;-80
2024/03/06 09:07:41;;;;;;;18.70;12.33;;;5.80;99.90;;;;;;5041637;28;20526;-79
2024/03/06 09:10:08;;;;;;;20.67;13.37;;;5.90;99.90;;;;;;5041694;28;20506;-79
2024/03/06 09:12:34;;;;;;;18.57;12.67;;;6.00;99.90;;;;;;5043210;28;20276;-80
2024/03/06 09:15:02;;;;;;;19.80;12.70;;;6.00;99.90;;;;;;5039304;28;20209;-79
2024/03/06 09:17:29;;;;;;;18.60;12.30;;;6.10;99.90;;;;;;5041230;28;20229;-79
2024/03/06 09:19:55;;;;;;;18.13;12.07;;;6.10;99.90;;;;;;5048309;28;20557;-78
2024/03/06 09:22:21;;;;;;;21.63;13.00;;;6.10;99.90;;;;;;5039930;28;20228;-79
2024/03/06 09:24:48;;;;;;;20.97;13.23;;;6.20;99.90;;;;;;5043311;28;20629;-80
2024/03/06 09:27:15;;;;;;;18.63;11.63;;;6.40;99.90;;;;;;5048510;28;20497;-79
2024/03/06 09:29:41;;;;;;;20.60;12.47;;;6.40;99.90;;;;;;5047489;28;20182;-81
2024/03/06 09:32:07;;;;;;;15.00;11.30;;;6.50;99.90;;;;;;5045298;28;20241;-79
2024/03/06 09:34:32;;;;;;;17.27;11.40;;;6.60;99.90;;;;;;5049140;28;20185;-79
2024/03/06 09:36:59;;;;;;;16.87;11.83;;;6.60;99.90;;;;;;5045186;28;20267;-78
2024/03/06 09:39:25;;;;;;;15.67;11.10;;;6.70;99.90;;;;;;5044118;28;20275;-79
2024/03/06 09:41:51;;;;;;;15.90;11.67;;;6.80;99.90;;;;;;5051608;28;20173;-78
2024/03/06 09:44:18;;;;;;;19.43;12.23;;;6.80;99.90;;;;;;5046509;28;20206;-79
2024/03/06 09:46:48;;;;;;;17.43;11.80;;;6.90;99.90;;;;;;5049848;28;20170;-78
2024/03/06 09:49:16;;;;;;;18.40;11.67;;;6.90;99.90;;;;;;5046637;28;20170;-79
2024/03/06 09:51:47;;;;;;;16.50;11.23;;;7.00;99.90;;;;;;5046196;28;20627;-78
2024/03/06 09:54:17;;;;;;;18.30;11.20;;;7.00;99.90;;;;;;5043600;28;20189;-78
2024/03/06 09:56:44;;;;;;;17.60;11.03;;;7.20;99.90;;;;;;5040642;28;20224;-79
2024/03/06 09:59:11;;;;;;;14.37;11.03;;;7.30;99.90;;;;;;5043667;28;20213;-78
2024/03/06 10:01:56;;;;;;;15.77;10.60;;;7.40;99.90;;;;;;5040040;28;20486;-78
2024/03/06 10:04:22;;;;;;;16.57;10.73;;;7.30;99.90;;;;;;5037341;28;20203;-78
2024/03/06 10:06:49;;;;;;;19.80;11.60;;;7.30;99.90;;;;;;5036682;28;20187;-79
2024/03/06 10:09:19;;;;;;;15.73;11.60;;;7.20;99.90;;;;;;5038263;28;20171;-79
2024/03/06 10:11:45;;;;;;;14.60;10.60;;;7.30;99.90;;;;;;5036866;28;20179;-79
2024/03/06 10:14:12;;;;;;;16.87;10.20;;;7.30;99.90;;;;;;5037312;28;20651;-79
2024/03/06 10:16:51;;;;;;;17.73;10.60;;;7.40;99.90;;;;;;5041845;28;20206;-79
2024/03/06 10:19:18;;;;;;;19.37;11.20;;;7.50;99.90;;;;;;5039553;28;20524;-80
2024/03/06 10:21:51;;;;;;;16.30;11.00;;;7.50;99.90;;;;;;5036945;28;20179;-79
2024/03/06 10:24:20;;;;;;;19.13;11.33;;;7.60;99.90;;;;;;5039047;28;20178;-80
2024/03/06 10:26:46;;;;;;;17.00;10.90;;;7.70;99.90;;;;;;5045932;28;20220;-79
2024/03/06 10:29:16;;;;;;;18.63;11.23;;;7.80;99.90;;;;;;5043489;28;20190;-80
2024/03/06 10:31:57;;;;;;;15.83;10.90;;;7.80;99.90;;;;;;5038466;28;20171;-79
2024/03/06 10:34:25;;;;;;;18.50;10.40;;;7.90;99.90;;;;;;5054391;28;20204;-80
2024/03/06 10:37:05;;;;;;;20.13;10.27;;;7.90;99.90;;;;;;5047367;28;20179;-80
2024/03/06 10:39:34;;;;;;;21.23;11.43;;;7.90;99.90;;;;;;5055524;28;20271;-80
2024/03/06 10:42:02;;;;;;;19.30;11.30;;;8.00;99.90;;;;;;5055665;28;20177;-80
2024/03/06 10:44:29;;;;;;;16.23;11.57;;;8.10;99.90;;;;;;5055628;28;20177;-80
2024/03/06 10:47:01;;;;;;;20.47;11.73;;;8.20;99.90;;;;;;5055425;28;20174;-81
2024/03/06 10:49:29;;;;;;;18.03;10.93;;;8.30;99.90;;;;;;5053973;28;20531;-81
2024/03/06 10:52:05;;;;;;;15.33;10.37;;;8.30;99.90;;;;;;5055330;28;20178;-81
2024/03/06 10:54:41;;;;;;;14.60;11.23;;;8.40;99.90;;;;;;5055536;28;20186;-82
2024/03/06 10:57:09;;;;;;;17.20;11.13;;;8.40;99.90;;;;;;5046172;28;20188;-80
2024/03/06 10:59:36;;;;;;;22.10;11.17;;;8.40;99.90;;;;;;5054787;28;20209;-80
2024/03/06 11:02:02;;;;;;;15.87;11.07;;;8.50;99.90;;;;;;5055210;28;20251;-79
2024/03/06 11:04:30;;;;;;;18.17;10.77;;;8.50;99.90;;;;;;5055228;28;20193;-80
2024/03/06 11:07:00;;;;;;;15.30;11.10;;;8.60;99.90;;;;;;5045886;28;20194;-80
2024/03/06 11:09:38;;;;;;;15.70;10.93;;;8.60;99.90;;;;;;5054099;28;20623;-81
2024/03/06 11:12:07;;;;;;;18.98;11.65;;;8.70;99.90;;;;;;5053642;28;20188;-80
2024/03/06 11:14:37;;;;;;;17.00;11.60;;;8.60;99.90;;;;;;5054744;28;20178;-81
2024/03/06 11:17:05;;;;;;;21.13;10.93;;;8.50;99.90;;;;;;5054497;28;20221;-80
2024/03/06 11:19:32;;;;;;;18.63;12.33;;;8.40;99.90;;;;;;5054721;28;20259;-80
2024/03/06 11:21:59;;;;;;;19.23;11.40;;;8.50;99.90;;;;;;5054706;28;20182;-81
2024/03/06 11:24:34;;;;;;;16.17;11.20;;;8.50;99.90;;;;;;5054933;28;20284;-80
2024/03/06 11:27:02;;;;;;;22.60;12.03;;;8.50;99.90;;;;;;5054614;28;20655;-80
2024/03/06 11:29:29;;;;;;;21.67;11.80;;;8.50;99.90;;;;;;5053169;28;20230;-80
2024/03/06 11:32:03;;;;;;;17.63;11.67;;;8.60;99.90;;;;;;5054809;28;20174;-80
2024/03/06 11:34:33;;;;;;;16.07;11.77;;;8.80;99.90;;;;;;5053452;28;20182;-81
2024/03/06 11:36:59;;;;;;;17.37;12.47;;;8.60;99.90;;;;;;5045179;28;20482;-81
2024/03/06 11:39:33;;;;;;;16.30;12.17;;;8.70;99.90;;;;;;5054141;28;20198;-81
2024/03/06 11:42:00;;;;;;;19.23;11.90;;;8.80;99.90;;;;;;5052902;28;20188;-81
2024/03/06 11:44:28;;;;;;;17.17;11.80;;;8.90;99.90;;;;;;5047038;28;20277;-81
2024/03/06 11:47:04;;;;;;;17.98;11.23;;;9.00;99.90;;;;;;5051061;28;20209;-81
2024/03/06 11:49:33;;;;;;;15.02;11.02;;;9.10;99.90;;;;;;5054458;28;20178;-81
2024/03/06 11:52:05;;;;;;;21.33;11.50;;;9.30;99.90;;;;;;5052912;28;20667;-80
2024/03/06 11:54:32;;;;;;;16.40;11.10;;;9.40;99.90;;;;;;5053126;28;20185;-80
2024/03/06 11:57:00;;;;;;;19.67;11.03;;;9.40;99.90;;;;;;5051284;28;20178;-82
2024/03/06 11:59:28;;;;;;;25.05;10.68;;;9.30;99.90;;;;;;5048340;28;20237;-81
2024/03/06 12:01:56;;;;;;;19.80;11.68;;;9.20;99.90;;;;;;5051876;28;20177;-81
2024/03/06 12:04:22;;;;;;;13.95;10.20;;;9.10;99.90;;;;;;5052119;28;20181;-81
2024/03/06 12:06:49;;;;;;;15.80;11.03;;;9.10;99.90;;;;;;5045255;28;20182;-80
2024/03/06 12:09:16;;;;;;;20.73;10.48;;;9.30;99.90;;;;;;5052129;28;20182;-81
2024/03/06 12:11:45;;;;;;;19.10;10.52;;;9.30;99.90;;;;;;5051836;28;20178;-80
2024/03/06 12:14:16;;;;;;;14.98;10.15;;;9.30;99.90;;;;;;5052741;28;20182;-81
2024/03/06 12:16:43;;;;;;;15.75;10.10;;;9.30;99.90;;;;;;5053672;28;20170;-80
2024/03/06 12:19:09;;;;;;;18.52;10.50;;;9.30;99.90;;;;;;5052498;28;20216;-80
2024/03/06 12:21:36;;;;;;;17.80;11.00;;;9.40;99.90;;;;;;5052666;28;20174;-81
2024/03/06 12:24:06;;;;;;;18.92;10.10;;;9.40;99.90;;;;;;5053656;28;20210;-81
2024/03/06 12:26:31;;;;;;;17.50;10.50;;;9.60;99.90;;;;;;5052368;28;20523;-80
2024/03/06 12:29:12;;;;;;;16.13;10.40;;;9.60;99.90;;;;;;5053602;28;20191;-81
2024/03/06 12:31:41;;;;;;;15.13;10.43;;;9.60;99.90;;;;;;5052478;28;20181;-81
2024/03/06 12:34:08;;;;;;;16.48;10.90;;;9.80;99.90;;;;;;5052629;28;20177;-81
2024/03/06 12:36:34;;;;;;;18.17;10.75;;;9.70;99.90;;;;;;5046211;28;20171;-81
2024/03/06 12:39:03;;;;;;;20.65;10.43;;;9.70;99.90;;;;;;5052204;28;20296;-81